createdAt,value
2022-09-17T00:01:56.099Z,97153.97
2022-09-17T00:07:00.414Z,97147.69
2022-09-17T00:12:04.235Z,97147.88
2022-09-17T00:17:08.032Z,97144.69
2022-09-17T00:22:11.437Z,97141.44
2022-09-17T00:27:14.874Z,97145.56
2022-09-17T00:32:18.587Z,97134.19
2022-09-17T00:37:23.249Z,97126.47
2022-09-17T00:42:26.567Z,97137.06
2022-09-17T00:47:38.991Z,97129.09
2022-09-17T00:52:55.201Z,97126.84
2022-09-17T00:58:01.847Z,97128.97
2022-09-17T01:03:06.318Z,97119.66
2022-09-17T01:08:25.237Z,97117.72
2022-09-17T01:13:53.106Z,97115.94
2022-09-17T01:19:05.596Z,97119.91
2022-09-17T01:24:35.426Z,97108.03
2022-09-17T01:29:41.731Z,97118.25
2022-09-17T01:35:03.976Z,97112.94
2022-09-17T01:40:42.835Z,97113.56
2022-09-17T01:45:57.823Z,97110.81
2022-09-17T01:51:14.958Z,97104.09
2022-09-17T01:56:22.979Z,97112.72
2022-09-17T02:01:30.123Z,97113.66
2022-09-17T02:06:38.790Z,97108.84
2022-09-17T02:11:46.324Z,97110.25
2022-09-17T02:16:57.521Z,97108.97
2022-09-17T02:22:33.156Z,97119.88
2022-09-17T02:27:48.094Z,97123.41
2022-09-17T02:32:51.671Z,97122.28
2022-09-17T02:37:55.537Z,97133.69
2022-09-17T02:43:10.799Z,97133.84
2022-09-17T02:48:34.091Z,97139.16
2022-09-17T02:53:49.303Z,97134.19
2022-09-17T02:59:31.586Z,97139.78
2022-09-17T03:04:37.434Z,97146.56
2022-09-17T03:09:41.670Z,97149.97
2022-09-17T03:14:48.137Z,97150.44
2022-09-17T03:19:55.215Z,97155.09
2022-09-17T03:24:58.795Z,97156.72
2022-09-17T03:30:02.237Z,97150.44
2022-09-17T03:35:10.646Z,97155.09
2022-09-17T03:40:18.607Z,97163.78
2022-09-17T03:45:22.302Z,97165.88
2022-09-17T03:50:25.875Z,97167.00
2022-09-17T03:55:29.632Z,97166.06
2022-09-17T04:00:33.825Z,97166.41
2022-09-17T04:05:37.482Z,97183.16
2022-09-17T04:10:41.477Z,97186.88
2022-09-17T04:15:46.263Z,97180.81
2022-09-17T04:20:49.670Z,97176.47
2022-09-17T04:25:53.098Z,97186.16
2022-09-17T04:30:56.980Z,97176.38
2022-09-17T04:36:00.495Z,97174.47
2022-09-17T04:41:03.837Z,97175.16
2022-09-17T04:46:07.668Z,97175.81
2022-09-17T04:51:11.192Z,97171.03
2022-09-17T04:56:14.502Z,97171.03
2022-09-17T05:01:18.160Z,97166.53
2022-09-17T05:06:22.131Z,97164.25
2022-09-17T05:11:25.945Z,97165.88
2022-09-17T05:16:29.613Z,97172.41
2022-09-17T05:21:33.746Z,97172.06
2022-09-17T05:26:37.099Z,97176.59
2022-09-17T05:31:41.032Z,97174.03
2022-09-17T05:36:44.725Z,97183.19
2022-09-17T05:41:47.968Z,97182.56
2022-09-17T05:46:53.516Z,97187.41
2022-09-17T05:51:56.834Z,97186.13
2022-09-17T05:57:01.151Z,97192.56
2022-09-17T06:02:05.628Z,97188.41
2022-09-17T06:07:09.563Z,97182.38
2022-09-17T06:12:13.059Z,97193.16
2022-09-17T06:17:21.999Z,97188.50
2022-09-17T06:22:25.668Z,97197.34
2022-09-17T06:27:33.206Z,97192.50
2022-09-17T06:32:36.713Z,97189.88
2022-09-17T06:37:40.158Z,97175.66
2022-09-17T06:42:50.981Z,97182.06
2022-09-17T06:47:54.472Z,97186.88
2022-09-17T06:52:57.893Z,97187.34
2022-09-17T06:58:01.279Z,97195.72
2022-09-17T07:03:04.845Z,97195.41
2022-09-17T07:08:08.223Z,97204.22
2022-09-17T07:13:11.695Z,97199.56
2022-09-17T07:18:15.268Z,97196.28
2022-09-17T07:23:18.783Z,97200.81
2022-09-17T07:28:22.955Z,97203.63
2022-09-17T07:33:28.123Z,97192.44
2022-09-17T07:38:32.547Z,97190.56
2022-09-17T07:43:37.321Z,97188.81
2022-09-17T07:48:40.991Z,97182.88
2022-09-17T07:53:45.137Z,97186.28
2022-09-17T07:58:49.358Z,97169.28
2022-09-17T08:03:54.522Z,97172.56
2022-09-17T08:09:01.402Z,97175.25
2022-09-17T08:14:05.035Z,97166.44
2022-09-17T08:19:08.768Z,97170.59
2022-09-17T08:24:12.271Z,97172.28
2022-09-17T08:29:16.119Z,97159.13
2022-09-17T08:34:19.571Z,97159.03
2022-09-17T08:39:22.804Z,97149.28
2022-09-17T08:44:41.605Z,97143.34
2022-09-17T08:49:51.034Z,97145.50
2022-09-17T08:55:23.694Z,97152.72
2022-09-17T09:00:35.668Z,97150.88
2022-09-17T09:05:47.463Z,97145.16
2022-09-17T09:10:57.777Z,97147.91
2022-09-17T09:16:06.004Z,97147.00
2022-09-17T09:21:25.738Z,97149.16
2022-09-17T09:26:43.828Z,97140.09
2022-09-17T09:32:02.224Z,97140.09
2022-09-17T09:37:26.199Z,97136.25
2022-09-17T09:42:33.289Z,97133.13
2022-09-17T09:48:05.700Z,97123.84
2022-09-17T09:53:15.029Z,97114.31
2022-09-17T09:58:40.599Z,97103.88
2022-09-17T10:03:49.029Z,97106.06
2022-09-17T10:08:55.225Z,97101.81
2022-09-17T10:14:26.256Z,97095.41
2022-09-17T10:19:33.565Z,97085.25
2022-09-17T10:24:39.443Z,97085.47
2022-09-17T10:29:47.902Z,97082.97
2022-09-17T10:35:25.788Z,97092.84
2022-09-17T10:40:32.467Z,97092.72
2022-09-17T10:45:39.580Z,97077.47
2022-09-17T10:50:49.775Z,97088.25
2022-09-17T10:55:56.412Z,97076.09
2022-09-17T11:01:11.938Z,97064.50
2022-09-17T11:06:26.904Z,97069.78
2022-09-17T11:11:41.925Z,97067.75
2022-09-17T11:16:52.268Z,97054.81
2022-09-17T11:22:06.462Z,97047.03
2022-09-17T11:27:35.906Z,97052.66
2022-09-17T11:32:55.375Z,97049.19
2022-09-17T11:38:13.862Z,97044.50
2022-09-17T11:43:36.263Z,97048.28
2022-09-17T11:48:56.060Z,97051.50
2022-09-17T11:54:08.812Z,97045.88
2022-09-17T11:59:39.167Z,97055.16
2022-09-17T12:04:49.955Z,97053.00
2022-09-17T12:10:14.694Z,97052.09
2022-09-17T12:15:25.322Z,97055.63
2022-09-17T12:20:36.886Z,97051.75
2022-09-17T12:26:00.473Z,97045.81
2022-09-17T12:31:14.799Z,97036.59
2022-09-17T12:36:45.267Z,97047.59
2022-09-17T12:42:11.602Z,97036.66
2022-09-17T12:47:34.806Z,97035.22
2022-09-17T12:52:58.517Z,97031.69
2022-09-17T12:58:26.630Z,97039.72
2022-09-17T13:03:37.708Z,97023.59
2022-09-17T13:08:45.470Z,97025.16
2022-09-17T13:13:55.604Z,97022.03
2022-09-17T13:19:22.223Z,97018.13
2022-09-17T13:24:29.415Z,97020.88
2022-09-17T13:29:44.983Z,97020.78
2022-09-17T13:39:57.305Z,97023.47
2022-09-17T13:45:03.493Z,97023.31
2022-09-17T13:50:24.560Z,97021.81
2022-09-17T13:55:35.746Z,97021.41
2022-09-17T14:01:02.242Z,97025.13
2022-09-17T14:06:06.685Z,97022.91
2022-09-17T14:11:30.434Z,97022.31
2022-09-17T14:16:57.030Z,97022.84
2022-09-17T14:22:12.691Z,97022.25
2022-09-17T14:27:38.651Z,97016.97
2022-09-17T14:32:46.135Z,97020.25
2022-09-17T14:37:56.278Z,97022.09
2022-09-17T14:43:03.358Z,97024.53
2022-09-17T14:48:24.931Z,97022.47
2022-09-17T14:53:28.196Z,97029.56
2022-09-17T14:58:35.316Z,97029.75
2022-09-17T15:03:38.765Z,97041.34
2022-09-17T15:08:45.887Z,97025.13
2022-09-17T15:13:53.351Z,97029.19
2022-09-17T15:18:59.965Z,97025.38
2022-09-17T15:24:28.961Z,97028.13
2022-09-17T15:29:34.715Z,97029.47
2022-09-17T15:34:38.113Z,97031.09
2022-09-17T15:39:43.235Z,97022.41
2022-09-17T15:44:47.209Z,97019.22
2022-09-17T15:50:14.407Z,97013.44
2022-09-17T15:55:28.167Z,97028.72
2022-09-17T16:00:31.737Z,97024.38
2022-09-17T16:05:47.360Z,97020.38
2022-09-17T16:10:50.798Z,97027.28
2022-09-17T16:15:54.772Z,97027.94
2022-09-17T16:20:58.847Z,97025.84
2022-09-17T16:26:02.502Z,97035.81
2022-09-17T16:31:06.849Z,97038.38
2022-09-17T16:36:11.642Z,97041.78
2022-09-17T16:41:15.164Z,97048.66
2022-09-17T16:46:18.722Z,97043.53
2022-09-17T16:51:22.081Z,97051.56
2022-09-17T16:56:25.325Z,97049.91
2022-09-17T17:01:29.177Z,97059.25
2022-09-17T17:06:32.719Z,97056.84
2022-09-17T17:11:36.153Z,97071.16
2022-09-17T17:16:40.215Z,97070.97
2022-09-17T17:21:47.282Z,97070.50
2022-09-17T17:26:50.686Z,97071.59
2022-09-17T17:31:54.203Z,97070.00
2022-09-17T17:36:59.453Z,97070.31
2022-09-17T17:42:03.089Z,97067.13
2022-09-17T17:47:06.719Z,97070.97
2022-09-17T17:52:10.521Z,97083.78
2022-09-17T17:57:14.156Z,97088.78
2022-09-17T18:02:17.781Z,97091.50
2022-09-17T18:07:21.293Z,97089.44
2022-09-17T18:12:26.927Z,97095.19
2022-09-17T18:17:31.094Z,97104.81
2022-09-17T18:22:34.341Z,97101.28
2022-09-17T18:27:40.404Z,97103.22
2022-09-17T18:32:44.296Z,97100.81
2022-09-17T18:37:48.065Z,97100.31
2022-09-17T18:42:52.404Z,97107.09
2022-09-17T18:47:55.868Z,97108.69
2022-09-17T18:52:59.200Z,97102.75
2022-09-17T18:58:02.677Z,97113.16
2022-09-17T19:03:06.530Z,97114.28
2022-09-17T19:08:13.779Z,97110.44
2022-09-17T19:13:20.764Z,97121.22
2022-09-17T19:18:24.101Z,97116.09
2022-09-17T19:23:27.505Z,97105.16
2022-09-17T19:28:30.620Z,97108.69
2022-09-17T19:33:33.983Z,97098.56
2022-09-17T19:38:37.639Z,97105.81
2022-09-17T19:43:44.688Z,97105.63
2022-09-17T19:48:53.385Z,97104.03
2022-09-17T19:53:57.052Z,97107.09
2022-09-17T19:59:00.300Z,97109.00
2022-09-17T20:04:03.780Z,97105.16
2022-09-17T20:09:12.290Z,97121.22
2022-09-17T20:14:16.178Z,97126.84
2022-09-17T20:19:19.700Z,97121.88
2022-09-17T20:24:23.079Z,97105.50
2022-09-17T20:29:27.873Z,97112.41
2022-09-17T20:34:34.588Z,97110.16
2022-09-17T20:39:38.006Z,97106.16
2022-09-17T20:44:41.532Z,97123.34
2022-09-17T20:49:44.901Z,97118.19
2022-09-17T20:54:48.937Z,97111.28
2022-09-17T20:59:52.505Z,97108.34
2022-09-17T21:04:56.154Z,97111.41
2022-09-17T21:09:59.944Z,97128.41
2022-09-17T21:15:03.363Z,97117.00
2022-09-17T21:20:07.595Z,97125.53
2022-09-17T21:25:10.975Z,97131.13
2022-09-17T21:30:14.996Z,97119.53
2022-09-17T21:35:18.422Z,97125.94
2022-09-17T21:40:22.396Z,97121.94
2022-09-17T21:45:25.872Z,97115.19
2022-09-17T21:50:29.311Z,97120.94
2022-09-17T21:55:32.798Z,97128.19
2022-09-17T22:00:39.746Z,97129.97
2022-09-17T22:05:46.817Z,97129.47
2022-09-17T22:10:50.681Z,97125.94
2022-09-17T22:15:59.404Z,97122.41
2022-09-17T22:21:36.348Z,97127.06
2022-09-17T22:26:42.340Z,97116.78
2022-09-17T22:31:47.097Z,97118.72
2022-09-17T22:36:50.953Z,97125.59
2022-09-17T22:41:54.898Z,97116.44
2022-09-17T22:46:58.526Z,97121.09
2022-09-17T22:52:02.128Z,97118.06
2022-09-17T22:57:05.808Z,97116.94
2022-09-17T23:02:09.745Z,97111.63
2022-09-17T23:07:13.300Z,97110.03
2022-09-17T23:12:17.293Z,97109.22
2022-09-17T23:17:20.862Z,97111.34
2022-09-17T23:22:24.458Z,97114.06
2022-09-17T23:27:28.371Z,97116.28
2022-09-17T23:32:31.610Z,97113.88
2022-09-17T23:37:34.920Z,97116.78
2022-09-17T23:42:38.131Z,97121.25
2022-09-17T23:47:41.502Z,97134.75
2022-09-17T23:52:45.197Z,97127.50
2022-09-17T23:57:48.634Z,97128.88
